sensor_id;sensor_type;location;lat;lon;timestamp;pressure;altitude;pressure_sealevel;temperature;humidity
22649;BME280;11491;41.942;24.220;2023-03-02T00:01:19;90115.53;;;3.84;93.94
22649;BME280;11491;41.942;24.220;2023-03-02T00:03:46;90122.75;;;3.92;93.12
22649;BME280;11491;41.942;24.220;2023-03-02T00:06:14;90124.41;;;4.02;92.30
22649;BME280;11491;41.942;24.220;2023-03-02T00:08:41;90119.44;;;4.00;92.32
22649;BME280;11491;41.942;24.220;2023-03-02T00:11:08;90125.91;;;3.94;92.46
22649;BME280;11491;41.942;24.220;2023-03-02T00:13:37;90123.75;;;3.96;93.21
22649;BME280;11491;41.942;24.220;2023-03-02T00:16:05;90120.38;;;4.04;93.24
22649;BME280;11491;41.942;24.220;2023-03-02T00:18:31;90123.72;;;4.10;92.73
22649;BME280;11491;41.942;24.220;2023-03-02T00:20:58;90121.00;;;4.01;92.78
22649;BME280;11491;41.942;24.220;2023-03-02T00:23:25;90121.00;;;4.01;93.17
22649;BME280;11491;41.942;24.220;2023-03-02T00:25:52;90124.78;;;4.09;92.66
22649;BME280;11491;41.942;24.220;2023-03-02T00:28:19;90117.06;;;4.13;92.87
22649;BME280;11491;41.942;24.220;2023-03-02T00:30:47;90118.59;;;4.14;92.74
22649;BME280;11491;41.942;24.220;2023-03-02T00:33:14;90123.41;;;4.12;91.82
22649;BME280;11491;41.942;24.220;2023-03-02T00:35:40;90118.13;;;4.12;91.66
22649;BME280;11491;41.942;24.220;2023-03-02T00:38:07;90119.22;;;4.10;92.18
22649;BME280;11491;41.942;24.220;2023-03-02T00:40:34;90109.69;;;4.09;92.26
22649;BME280;11491;41.942;24.220;2023-03-02T00:43:01;90114.88;;;4.15;92.07
22649;BME280;11491;41.942;24.220;2023-03-02T00:45:29;90104.28;;;4.15;91.92
22649;BME280;11491;41.942;24.220;2023-03-02T00:47:57;90105.97;;;4.10;91.52
22649;BME280;11491;41.942;24.220;2023-03-02T00:50:24;90106.28;;;4.09;91.71
22649;BME280;11491;41.942;24.220;2023-03-02T00:52:51;90105.97;;;4.10;91.89
22649;BME280;11491;41.942;24.220;2023-03-02T00:55:18;90107.03;;;4.09;91.29
22649;BME280;11491;41.942;24.220;2023-03-02T00:57:44;90093.34;;;4.07;91.54
22649;BME280;11491;41.942;24.220;2023-03-02T01:00:20;90092.75;;;4.10;91.52
22649;BME280;11491;41.942;24.220;2023-03-02T01:02:47;90091.53;;;4.17;91.46
22649;BME280;11491;41.942;24.220;2023-03-02T01:05:16;90090.75;;;4.16;91.33
22649;BME280;11491;41.942;24.220;2023-03-02T01:07:43;90079.03;;;4.08;90.31
22649;BME280;11491;41.942;24.220;2023-03-02T01:10:11;90089.53;;;4.22;89.42
22649;BME280;11491;41.942;24.220;2023-03-02T01:12:38;90087.22;;;4.21;89.53
22649;BME280;11491;41.942;24.220;2023-03-02T01:15:06;90076.88;;;4.10;90.04
22649;BME280;11491;41.942;24.220;2023-03-02T01:17:33;90077.00;;;4.05;90.51
22649;BME280;11491;41.942;24.220;2023-03-02T01:20:00;90072.19;;;4.07;91.00
22649;BME280;11491;41.942;24.220;2023-03-02T01:22:28;90074.63;;;4.04;91.22
22649;BME280;11491;41.942;24.220;2023-03-02T01:24:54;90071.00;;;4.00;91.27
22649;BME280;11491;41.942;24.220;2023-03-02T01:27:21;90081.78;;;4.03;90.69
22649;BME280;11491;41.942;24.220;2023-03-02T01:29:48;90072.19;;;4.07;90.64
22649;BME280;11491;41.942;24.220;2023-03-02T01:32:15;90085.16;;;3.95;90.61
22649;BME280;11491;41.942;24.220;2023-03-02T01:34:42;90082.63;;;3.90;91.30
22649;BME280;11491;41.942;24.220;2023-03-02T01:37:09;90079.97;;;3.90;92.02
22649;BME280;11491;41.942;24.220;2023-03-02T01:39:37;90082.97;;;3.97;91.25
22649;BME280;11491;41.942;24.220;2023-03-02T01:42:04;90079.16;;;4.03;91.46
22649;BME280;11491;41.942;24.220;2023-03-02T01:44:40;90074.56;;;3.95;91.30
22649;BME280;11491;41.942;24.220;2023-03-02T01:47:14;90066.63;;;3.95;92.17
22649;BME280;11491;41.942;24.220;2023-03-02T01:49:45;90075.53;;;3.99;91.90
22649;BME280;11491;41.942;24.220;2023-03-02T01:52:12;90071.81;;;4.00;92.33
22649;BME280;11491;41.942;24.220;2023-03-02T01:54:41;90059.28;;;3.92;92.80
22649;BME280;11491;41.942;24.220;2023-03-02T01:57:09;90064.34;;;4.02;92.05
22649;BME280;11491;41.942;24.220;2023-03-02T01:59:39;90064.66;;;4.01;91.96
22649;BME280;11491;41.942;24.220;2023-03-02T02:02:08;90069.63;;;4.02;91.30
22649;BME280;11491;41.942;24.220;2023-03-02T02:04:39;90061.81;;;3.97;92.07
22649;BME280;11491;41.942;24.220;2023-03-02T02:07:08;90059.28;;;3.92;92.17
22649;BME280;11491;41.942;24.220;2023-03-02T02:09:38;90055.56;;;3.93;92.66
22649;BME280;11491;41.942;24.220;2023-03-02T02:12:11;90059.16;;;3.97;92.23
22649;BME280;11491;41.942;24.220;2023-03-02T02:14:39;90042.94;;;3.90;91.99
22649;BME280;11491;41.942;24.220;2023-03-02T02:17:05;90043.78;;;3.99;92.21
22649;BME280;11491;41.942;24.220;2023-03-02T02:19:40;90006.84;;;3.72;91.81
22649;BME280;11491;41.942;24.220;2023-03-02T02:22:10;90028.75;;;3.86;92.49
22649;BME280;11491;41.942;24.220;2023-03-02T02:24:43;90039.31;;;3.86;92.66
22649;BME280;11491;41.942;24.220;2023-03-02T02:27:13;90039.56;;;3.76;93.06
22649;BME280;11491;41.942;24.220;2023-03-02T02:29:43;90042.25;;;3.84;92.35
22649;BME280;11491;41.942;24.220;2023-03-02T02:32:14;90039.56;;;3.76;92.01
22649;BME280;11491;41.942;24.220;2023-03-02T02:34:44;90028.97;;;3.76;92.68
22649;BME280;11491;41.942;24.220;2023-03-02T02:37:15;90027.75;;;3.82;92.55
22649;BME280;11491;41.942;24.220;2023-03-02T02:39:44;90033.06;;;3.82;92.70
22649;BME280;11491;41.942;24.220;2023-03-02T02:42:15;90022.69;;;3.85;92.77
22649;BME280;11491;41.942;24.220;2023-03-02T02:44:43;90034.81;;;3.86;92.62
22649;BME280;11491;41.942;24.220;2023-03-02T02:47:15;90032.94;;;3.87;91.92
22649;BME280;11491;41.942;24.220;2023-03-02T02:49:43;90034.25;;;3.76;92.44
22649;BME280;11491;41.942;24.220;2023-03-02T02:52:13;90049.03;;;3.77;91.61
22649;BME280;11491;41.942;24.220;2023-03-02T02:54:43;90051.91;;;3.66;92.49
22649;BME280;11491;41.942;24.220;2023-03-02T02:57:12;90042.88;;;3.67;92.97
22649;BME280;11491;41.942;24.220;2023-03-02T02:59:43;90036.03;;;3.66;93.14
22649;BME280;11491;41.942;24.220;2023-03-02T03:02:16;90031.34;;;3.63;93.46
22649;BME280;11491;41.942;24.220;2023-03-02T03:04:44;90029.50;;;3.64;93.45
22649;BME280;11491;41.942;24.220;2023-03-02T03:07:19;90031.34;;;3.63;93.23
22649;BME280;11491;41.942;24.220;2023-03-02T03:09:47;90032.91;;;3.64;93.16
22649;BME280;11491;41.942;24.220;2023-03-02T03:12:21;90034.50;;;3.65;93.28
22649;BME280;11491;41.942;24.220;2023-03-02T03:14:50;90028.59;;;3.69;93.30
22649;BME280;11491;41.942;24.220;2023-03-02T03:17:18;90030.66;;;3.72;93.03
22649;BME280;11491;41.942;24.220;2023-03-02T03:19:46;90020.97;;;3.67;93.57
22649;BME280;11491;41.942;24.220;2023-03-02T03:22:14;90022.72;;;3.72;94.03
22649;BME280;11491;41.942;24.220;2023-03-02T03:24:42;90016.25;;;3.78;93.47
22649;BME280;11491;41.942;24.220;2023-03-02T03:27:12;90028.78;;;3.72;93.45
22649;BME280;11491;41.942;24.220;2023-03-02T03:29:42;90027.63;;;3.64;93.93
22649;BME280;11491;41.942;24.220;2023-03-02T03:32:09;90029.09;;;3.71;94.32
22649;BME280;11491;41.942;24.220;2023-03-02T03:34:36;90027.72;;;3.73;94.51
22649;BME280;11491;41.942;24.220;2023-03-02T03:37:05;90032.69;;;3.75;94.76
22649;BME280;11491;41.942;24.220;2023-03-02T03:39:32;90030.53;;;3.77;94.04
22649;BME280;11491;41.942;24.220;2023-03-02T03:41:59;90043.25;;;3.75;94.70
22649;BME280;11491;41.942;24.220;2023-03-02T03:44:25;90043.88;;;3.72;94.34
22649;BME280;11491;41.942;24.220;2023-03-02T03:46:53;90052.88;;;3.71;95.03
22649;BME280;11491;41.942;24.220;2023-03-02T03:49:20;90047.13;;;3.69;95.06
22649;BME280;11491;41.942;24.220;2023-03-02T03:51:47;90033.28;;;3.72;95.06
22649;BME280;11491;41.942;24.220;2023-03-02T03:54:14;90030.03;;;3.75;94.44
22649;BME280;11491;41.942;24.220;2023-03-02T03:56:44;90030.03;;;3.75;93.75
22649;BME280;11491;41.942;24.220;2023-03-02T03:59:13;90031.13;;;3.74;93.62
22649;BME280;11491;41.942;24.220;2023-03-02T04:01:42;90046.41;;;3.77;94.00
22649;BME280;11491;41.942;24.220;2023-03-02T04:04:13;90044.09;;;3.61;93.61
22649;BME280;11491;41.942;24.220;2023-03-02T04:06:40;90040.25;;;3.67;93.36
22649;BME280;11491;41.942;24.220;2023-03-02T04:09:07;90030.38;;;3.59;93.48
22649;BME280;11491;41.942;24.220;2023-03-02T04:11:36;90034.94;;;3.67;93.81
22649;BME280;11491;41.942;24.220;2023-03-02T04:14:03;90044.47;;;3.69;93.76
22649;BME280;11491;41.942;24.220;2023-03-02T04:16:30;90040.72;;;3.70;93.48
22649;BME280;11491;41.942;24.220;2023-03-02T04:18:58;90038.97;;;3.65;93.44
22649;BME280;11491;41.942;24.220;2023-03-02T04:21:27;90037.59;;;3.67;93.19
22649;BME280;11491;41.942;24.220;2023-03-02T04:23:54;90035.06;;;3.62;93.31
22649;BME280;11491;41.942;24.220;2023-03-02T04:26:21;90039.28;;;3.63;93.62
22649;BME280;11491;41.942;24.220;2023-03-02T04:28:48;90042.31;;;3.71;93.07
22649;BME280;11491;41.942;24.220;2023-03-02T04:31:15;90042.31;;;3.71;92.86
22649;BME280;11491;41.942;24.220;2023-03-02T04:33:42;90045.53;;;3.67;92.83
22649;BME280;11491;41.942;24.220;2023-03-02T04:36:09;90046.34;;;3.68;92.34
22649;BME280;11491;41.942;24.220;2023-03-02T04:38:37;90041.22;;;3.72;92.63
22649;BME280;11491;41.942;24.220;2023-03-02T04:41:04;90042.31;;;3.71;92.43
22649;BME280;11491;41.942;24.220;2023-03-02T04:43:31;90034.13;;;3.58;92.67
22649;BME280;11491;41.942;24.220;2023-03-02T04:45:58;90039.09;;;3.60;92.79
22649;BME280;11491;41.942;24.220;2023-03-02T04:48:25;90036.66;;;3.63;92.71
22649;BME280;11491;41.942;24.220;2023-03-02T04:50:51;90039.19;;;3.69;92.62
22649;BME280;11491;41.942;24.220;2023-03-02T04:53:18;90042.31;;;3.71;92.47
22649;BME280;11491;41.942;24.220;2023-03-02T04:55:47;90044.34;;;3.74;92.52
22649;BME280;11491;41.942;24.220;2023-03-02T04:58:14;90035.44;;;3.70;93.09
22649;BME280;11491;41.942;24.220;2023-03-02T05:00:41;90032.09;;;3.78;92.86
22649;BME280;11491;41.942;24.220;2023-03-02T05:03:07;90022.91;;;3.75;92.04
22649;BME280;11491;41.942;24.220;2023-03-02T05:05:34;90027.41;;;3.75;92.42
22649;BME280;11491;41.942;24.220;2023-03-02T05:08:01;90030.16;;;3.70;92.76
22649;BME280;11491;41.942;24.220;2023-03-02T05:10:28;90022.22;;;3.70;92.72
22649;BME280;11491;41.942;24.220;2023-03-02T05:12:56;90032.09;;;3.78;92.73
22649;BME280;11491;41.942;24.220;2023-03-02T05:15:32;90025.25;;;3.77;92.02
22649;BME280;11491;41.942;24.220;2023-03-02T05:18:00;90013.09;;;3.76;91.61
22649;BME280;11491;41.942;24.220;2023-03-02T05:20:27;90034.63;;;3.83;92.16
22649;BME280;11491;41.942;24.220;2023-03-02T05:22:57;90026.59;;;3.88;92.22
22649;BME280;11491;41.942;24.220;2023-03-02T05:25:24;90024.47;;;3.76;92.23
22649;BME280;11491;41.942;24.220;2023-03-02T05:27:52;90036.97;;;3.84;92.47
22649;BME280;11491;41.942;24.220;2023-03-02T05:30:21;90043.41;;;3.92;92.71
22649;BME280;11491;41.942;24.220;2023-03-02T05:32:48;90040.88;;;3.87;92.52
22649;BME280;11491;41.942;24.220;2023-03-02T05:35:16;90045.59;;;3.90;91.72
22649;BME280;11491;41.942;24.220;2023-03-02T05:37:43;90043.88;;;3.94;92.22
22649;BME280;11491;41.942;24.220;2023-03-02T05:40:11;90039.09;;;3.96;91.38
22649;BME280;11491;41.942;24.220;2023-03-02T05:42:38;90050.03;;;4.03;91.58
22649;BME280;11491;41.942;24.220;2023-03-02T05:45:07;90054.59;;;4.12;90.56
22649;BME280;11491;41.942;24.220;2023-03-02T05:47:36;90052.81;;;3.98;90.43
22649;BME280;11491;41.942;24.220;2023-03-02T05:50:03;90054.97;;;3.96;90.25
22649;BME280;11491;41.942;24.220;2023-03-02T05:52:30;90062.91;;;3.96;90.55
22649;BME280;11491;41.942;24.220;2023-03-02T05:54:57;90060.44;;;4.00;90.62
22649;BME280;11491;41.942;24.220;2023-03-02T05:57:24;90063.00;;;3.91;90.27
22649;BME280;11491;41.942;24.220;2023-03-02T05:59:50;90059.34;;;3.78;90.48
22649;BME280;11491;41.942;24.220;2023-03-02T06:02:18;90058.50;;;3.55;90.75
22649;BME280;11491;41.942;24.220;2023-03-02T06:04:46;90065.72;;;3.63;91.45
22649;BME280;11491;41.942;24.220;2023-03-02T06:07:13;90064.88;;;3.54;91.31
22649;BME280;11491;41.942;24.220;2023-03-02T06:09:40;90069.56;;;3.57;92.02
22649;BME280;11491;41.942;24.220;2023-03-02T06:12:07;90067.41;;;3.59;92.47
22649;BME280;11491;41.942;24.220;2023-03-02T06:14:35;90064.25;;;3.57;92.71
22649;BME280;11491;41.942;24.220;2023-03-02T06:17:01;90059.97;;;3.61;92.79
22649;BME280;11491;41.942;24.220;2023-03-02T06:19:28;90073.25;;;3.70;92.53
22649;BME280;11491;41.942;24.220;2023-03-02T06:21:56;90073.66;;;3.63;92.76
22649;BME280;11491;41.942;24.220;2023-03-02T06:24:23;90072.66;;;3.73;93.04
22649;BME280;11491;41.942;24.220;2023-03-02T06:26:51;90065.78;;;3.72;93.29
22649;BME280;11491;41.942;24.220;2023-03-02T06:29:18;90080.06;;;3.85;92.94
22649;BME280;11491;41.942;24.220;2023-03-02T06:31:45;90088.69;;;3.91;92.59
22649;BME280;11491;41.942;24.220;2023-03-02T06:34:12;90088.88;;;3.94;92.34
22649;BME280;11491;41.942;24.220;2023-03-02T06:36:38;90092.00;;;3.96;91.95
22649;BME280;11491;41.942;24.220;2023-03-02T06:39:07;90087.84;;;4.04;91.24
22649;BME280;11491;41.942;24.220;2023-03-02T06:41:40;90080.22;;;4.02;91.58
22649;BME280;11491;41.942;24.220;2023-03-02T06:44:06;90082.44;;;4.09;91.91
22649;BME280;11491;41.942;24.220;2023-03-02T06:46:33;90076.50;;;4.03;91.70
22649;BME280;11491;41.942;24.220;2023-03-02T06:49:00;90085.69;;;4.06;90.88
22649;BME280;11491;41.942;24.220;2023-03-02T06:51:27;90084.31;;;4.08;91.74
22649;BME280;11491;41.942;24.220;2023-03-02T06:53:53;90089.22;;;4.15;91.36
22649;BME280;11491;41.942;24.220;2023-03-02T06:56:22;90088.06;;;4.07;90.85
22649;BME280;11491;41.942;24.220;2023-03-02T06:58:48;90088.00;;;4.21;91.09
22649;BME280;11491;41.942;24.220;2023-03-02T07:01:15;90094.66;;;4.19;91.17
22649;BME280;11491;41.942;24.220;2023-03-02T07:03:43;90075.06;;;4.20;90.80
22649;BME280;11491;41.942;24.220;2023-03-02T07:06:10;90091.13;;;4.23;90.42
22649;BME280;11491;41.942;24.220;2023-03-02T07:08:38;90093.50;;;4.25;90.77
22649;BME280;11491;41.942;24.220;2023-03-02T07:11:05;90090.72;;;4.30;91.17
22649;BME280;11491;41.942;24.220;2023-03-02T07:13:33;90083.25;;;4.32;91.16
22649;BME280;11491;41.942;24.220;2023-03-02T07:16:05;90086.44;;;4.43;90.53
22649;BME280;11491;41.942;24.220;2023-03-02T07:18:32;90089.13;;;4.29;90.49
22649;BME280;11491;41.942;24.220;2023-03-02T07:20:59;90089.13;;;4.29;90.45
22649;BME280;11491;41.942;24.220;2023-03-02T07:23:25;90087.22;;;4.21;90.72
22649;BME280;11491;41.942;24.220;2023-03-02T07:25:52;90087.59;;;4.28;90.81
22649;BME280;11491;41.942;24.220;2023-03-02T07:28:19;90094.66;;;4.19;90.49
22649;BME280;11491;41.942;24.220;2023-03-02T07:30:49;90092.41;;;4.26;90.70
22649;BME280;11491;41.942;24.220;2023-03-02T07:33:17;90097.19;;;4.24;90.04
22649;BME280;11491;41.942;24.220;2023-03-02T07:35:43;90099.47;;;4.17;90.85
22649;BME280;11491;41.942;24.220;2023-03-02T07:38:10;90095.66;;;4.23;90.70
22649;BME280;11491;41.942;24.220;2023-03-02T07:40:39;90103.47;;;4.28;90.38
22649;BME280;11491;41.942;24.220;2023-03-02T07:43:06;90098.66;;;4.30;90.27
22649;BME280;11491;41.942;24.220;2023-03-02T07:45:32;90102.25;;;4.34;90.37
22649;BME280;11491;41.942;24.220;2023-03-02T07:48:00;90104.41;;;4.32;90.59
22649;BME280;11491;41.942;24.220;2023-03-02T07:50:27;90097.75;;;4.35;90.35
22649;BME280;11491;41.942;24.220;2023-03-02T07:52:54;90110.06;;;4.39;90.80
22649;BME280;11491;41.942;24.220;2023-03-02T07:55:21;90101.44;;;4.47;90.03
22649;BME280;11491;41.942;24.220;2023-03-02T07:57:48;90097.31;;;4.41;89.66
22649;BME280;11491;41.942;24.220;2023-03-02T08:00:16;90095.94;;;4.44;90.55
22649;BME280;11491;41.942;24.220;2023-03-02T08:02:43;90081.81;;;4.48;90.11
22649;BME280;11491;41.942;24.220;2023-03-02T08:05:12;90087.81;;;4.63;89.85
22649;BME280;11491;41.942;24.220;2023-03-02T08:07:40;90088.53;;;4.77;89.31
22649;BME280;11491;41.942;24.220;2023-03-02T08:10:08;90087.72;;;4.77;88.69
22649;BME280;11491;41.942;24.220;2023-03-02T08:12:35;90097.53;;;4.76;89.11
22649;BME280;11491;41.942;24.220;2023-03-02T08:15:05;90098.31;;;4.77;88.84
22649;BME280;11491;41.942;24.220;2023-03-02T08:17:32;90092.66;;;4.69;89.16
22649;BME280;11491;41.942;24.220;2023-03-02T08:19:58;90086.94;;;4.76;88.56
22649;BME280;11491;41.942;24.220;2023-03-02T08:22:26;90089.31;;;4.78;88.38
22649;BME280;11491;41.942;24.220;2023-03-02T08:24:53;90088.84;;;4.84;88.06
22649;BME280;11491;41.942;24.220;2023-03-02T08:27:20;90092.38;;;4.71;87.66
22649;BME280;11491;41.942;24.220;2023-03-02T08:29:47;90088.75;;;4.67;88.52
22649;BME280;11491;41.942;24.220;2023-03-02T08:32:13;90093.13;;;4.63;86.72
22649;BME280;11491;41.942;24.220;2023-03-02T08:34:40;90093.13;;;4.63;87.49
22649;BME280;11491;41.942;24.220;2023-03-02T08:37:07;90091.28;;;4.72;87.29
22649;BME280;11491;41.942;24.220;2023-03-02T08:39:35;90095.38;;;4.78;88.04
22649;BME280;11491;41.942;24.220;2023-03-02T08:42:05;90094.41;;;4.74;88.32
22649;BME280;11491;41.942;24.220;2023-03-02T08:44:31;90096.56;;;4.72;87.70
22649;BME280;11491;41.942;24.220;2023-03-02T08:46:58;90100.06;;;4.81;88.16
22649;BME280;11491;41.942;24.220;2023-03-02T08:49:25;90084.13;;;4.72;87.49
22649;BME280;11491;41.942;24.220;2023-03-02T08:51:52;90091.53;;;4.62;87.98
22649;BME280;11491;41.942;24.220;2023-03-02T08:54:21;90091.66;;;4.34;88.25
22649;BME280;11491;41.942;24.220;2023-03-02T08:56:49;90092.50;;;4.21;89.96
22649;BME280;11491;41.942;24.220;2023-03-02T08:59:16;90088.19;;;4.25;90.19
22649;BME280;11491;41.942;24.220;2023-03-02T09:01:44;90091.06;;;4.37;90.27
22649;BME280;11491;41.942;24.220;2023-03-02T09:04:11;90083.59;;;4.39;89.82
22649;BME280;11491;41.942;24.220;2023-03-02T09:06:39;90086.69;;;4.32;89.61
22649;BME280;11491;41.942;24.220;2023-03-02T09:09:07;90085.31;;;4.13;90.63
22649;BME280;11491;41.942;24.220;2023-03-02T09:11:35;90088.63;;;4.04;91.60
22649;BME280;11491;41.942;24.220;2023-03-02T09:14:03;90097.47;;;4.00;91.21
22649;BME280;11491;41.942;24.220;2023-03-02T09:16:30;90084.94;;;4.05;91.39
22649;BME280;11491;41.942;24.220;2023-03-02T09:18:57;90091.41;;;3.99;91.82
22649;BME280;11491;41.942;24.220;2023-03-02T09:21:24;90086.22;;;3.94;91.80
22649;BME280;11491;41.942;24.220;2023-03-02T09:23:52;90089.63;;;3.95;93.09
22649;BME280;11491;41.942;24.220;2023-03-02T09:26:22;90086.72;;;3.96;93.20
22649;BME280;11491;41.942;24.220;2023-03-02T09:28:49;90092.16;;;4.00;92.81
22649;BME280;11491;41.942;24.220;2023-03-02T09:31:17;90089.78;;;4.12;93.22
22649;BME280;11491;41.942;24.220;2023-03-02T09:33:44;90093.66;;;4.28;93.15
22649;BME280;11491;41.942;24.220;2023-03-02T09:36:18;90093.13;;;4.40;92.19
22649;BME280;11491;41.942;24.220;2023-03-02T09:38:45;90088.06;;;4.52;92.15
22649;BME280;11491;41.942;24.220;2023-03-02T09:44:28;90089.38;;;4.64;90.85
22649;BME280;11491;41.942;24.220;2023-03-02T09:47:03;90087.34;;;4.61;90.28
22649;BME280;11491;41.942;24.220;2023-03-02T09:49:41;90084.31;;;4.76;89.81
22649;BME280;11491;41.942;24.220;2023-03-02T09:52:21;90080.47;;;4.82;90.22
22649;BME280;11491;41.942;24.220;2023-03-02T09:54:53;90082.97;;;4.87;88.55
22649;BME280;11491;41.942;24.220;2023-03-02T09:57:21;90075.69;;;5.02;88.37
22649;BME280;11491;41.942;24.220;2023-03-02T09:59:53;90074.00;;;5.06;88.44
22649;BME280;11491;41.942;24.220;2023-03-02T10:02:26;90062.78;;;5.09;87.81
22649;BME280;11491;41.942;24.220;2023-03-02T10:04:56;90063.88;;;5.08;88.24
22649;BME280;11491;41.942;24.220;2023-03-02T10:07:26;90063.75;;;5.13;86.87
22649;BME280;11491;41.942;24.220;2023-03-02T10:09:54;90058.94;;;5.24;86.17
22649;BME280;11491;41.942;24.220;2023-03-02T10:12:42;90055.56;;;5.32;86.33
22649;BME280;11491;41.942;24.220;2023-03-02T10:15:16;90064.63;;;5.39;85.95
22649;BME280;11491;41.942;24.220;2023-03-02T10:17:55;90059.81;;;5.42;85.12
22649;BME280;11491;41.942;24.220;2023-03-02T10:20:28;90052.91;;;5.40;85.24
22649;BME280;11491;41.942;24.220;2023-03-02T10:23:02;90051.97;;;5.36;85.10
22649;BME280;11491;41.942;24.220;2023-03-02T10:25:34;90044.16;;;5.31;85.56
22649;BME280;11491;41.942;24.220;2023-03-02T10:28:07;90042.66;;;5.48;85.58
22649;BME280;11491;41.942;24.220;2023-03-02T10:30:37;90040.19;;;5.60;85.47
22649;BME280;11491;41.942;24.220;2023-03-02T10:33:12;90026.88;;;5.43;85.12
22649;BME280;11491;41.942;24.220;2023-03-02T10:35:44;90034.25;;;5.63;85.45
22649;BME280;11491;41.942;24.220;2023-03-02T10:38:14;90033.78;;;5.70;85.20
22649;BME280;11491;41.942;24.220;2023-03-02T10:40:44;90037.22;;;5.70;84.97
22649;BME280;11491;41.942;24.220;2023-03-02T10:43:16;90034.59;;;5.79;84.75
22649;BME280;11491;41.942;24.220;2023-03-02T10:45:43;90028.97;;;5.80;84.25
22649;BME280;11491;41.942;24.220;2023-03-02T10:48:13;90022.09;;;5.79;83.27
22649;BME280;11491;41.942;24.220;2023-03-02T10:50:42;90038.34;;;5.87;82.74
22649;BME280;11491;41.942;24.220;2023-03-02T10:53:16;90034.59;;;5.88;82.85
22649;BME280;11491;41.942;24.220;2023-03-02T10:55:45;90035.53;;;5.92;82.57
22649;BME280;11491;41.942;24.220;2023-03-02T10:58:22;90025.88;;;5.96;83.42
22649;BME280;11491;41.942;24.220;2023-03-02T11:01:00;90019.78;;;5.95;82.62
22649;BME280;11491;41.942;24.220;2023-03-02T11:03:31;90023.81;;;5.93;82.72
22649;BME280;11491;41.942;24.220;2023-03-02T11:06:11;90029.28;;;5.88;82.19
22649;BME280;11491;41.942;24.220;2023-03-02T11:08:42;90023.19;;;5.87;82.24
22649;BME280;11491;41.942;24.220;2023-03-02T11:11:20;90023.97;;;5.88;82.55
22649;BME280;11491;41.942;24.220;2023-03-02T11:13:47;90030.22;;;5.92;82.58
22649;BME280;11491;41.942;24.220;2023-03-02T11:16:24;90021.78;;;5.90;82.30
22649;BME280;11491;41.942;24.220;2023-03-02T11:18:57;90017.25;;;5.90;82.91
22649;BME280;11491;41.942;24.220;2023-03-02T11:21:29;90018.84;;;6.00;83.76
22649;BME280;11491;41.942;24.220;2023-03-02T11:24:06;90016.97;;;6.00;82.53
22649;BME280;11491;41.942;24.220;2023-03-02T11:26:38;90019.00;;;6.12;83.12
22649;BME280;11491;41.942;24.220;2023-03-02T11:29:11;90013.38;;;6.22;83.63
22649;BME280;11491;41.942;24.220;2023-03-02T11:31:42;90004.94;;;6.20;82.95
22649;BME280;11491;41.942;24.220;2023-03-02T11:34:23;89993.41;;;6.16;83.17
22649;BME280;11491;41.942;24.220;2023-03-02T11:36:57;89993.56;;;6.29;83.14
22649;BME280;11491;41.942;24.220;2023-03-02T11:39:34;89983.88;;;6.15;82.59
22649;BME280;11491;41.942;24.220;2023-03-02T11:42:02;89996.50;;;6.18;82.29
22649;BME280;11491;41.942;24.220;2023-03-02T11:44:29;89988.88;;;6.17;81.95
22649;BME280;11491;41.942;24.220;2023-03-02T11:46:59;89997.78;;;6.12;82.85
22649;BME280;11491;41.942;24.220;2023-03-02T11:49:35;89994.66;;;6.10;82.27
22649;BME280;11491;41.942;24.220;2023-03-02T11:52:03;89988.56;;;6.10;83.40
22649;BME280;11491;41.942;24.220;2023-03-02T11:54:35;89983.53;;;6.25;83.83
22649;BME280;11491;41.942;24.220;2023-03-02T11:57:04;89980.88;;;6.25;83.36
22649;BME280;11491;41.942;24.220;2023-03-02T11:59:32;89981.19;;;6.33;82.50
22649;BME280;11491;41.942;24.220;2023-03-02T12:02:00;89981.97;;;6.33;82.92
22649;BME280;11491;41.942;24.220;2023-03-02T12:04:31;89980.28;;;6.29;83.69
22649;BME280;11491;41.942;24.220;2023-03-02T12:07:01;89979.81;;;6.27;83.10
22649;BME280;11491;41.942;24.220;2023-03-02T12:09:32;89984.19;;;6.22;83.29
22649;BME280;11491;41.942;24.220;2023-03-02T12:12:15;89975.56;;;6.25;83.83
22649;BME280;11491;41.942;24.220;2023-03-02T12:14:43;89976.06;;;6.28;83.21
22649;BME280;11491;41.942;24.220;2023-03-02T12:17:21;89981.53;;;6.22;83.46
22649;BME280;11491;41.942;24.220;2023-03-02T12:20:09;89973.06;;;6.38;83.33
22649;BME280;11491;41.942;24.220;2023-03-02T12:22:47;89972.75;;;6.31;82.40
22649;BME280;11491;41.942;24.220;2023-03-02T12:25:26;89970.44;;;6.29;82.64
22649;BME280;11491;41.942;24.220;2023-03-02T12:27:54;89966.53;;;6.27;82.69
22649;BME280;11491;41.942;24.220;2023-03-02T12:30:23;89970.91;;;6.22;82.73
22649;BME280;11491;41.942;24.220;2023-03-02T12:33:18;89962.47;;;6.20;82.63
22649;BME280;11491;41.942;24.220;2023-03-02T12:35:48;89964.66;;;6.18;82.53
22649;BME280;11491;41.942;24.220;2023-03-02T12:38:27;89964.81;;;6.13;82.65
22649;BME280;11491;41.942;24.220;2023-03-02T12:41:09;89969.19;;;6.18;82.24
22649;BME280;11491;41.942;24.220;2023-03-02T12:43:41;89959.06;;;6.11;81.65
22649;BME280;11491;41.942;24.220;2023-03-02T12:46:31;89947.50;;;5.90;82.52
22649;BME280;11491;41.942;24.220;2023-03-02T12:49:01;89969.50;;;5.73;83.65
22649;BME280;11491;41.942;24.220;2023-03-02T12:51:42;89961.25;;;5.74;83.79
22649;BME280;11491;41.942;24.220;2023-03-02T12:54:13;89963.72;;;5.62;84.27
22649;BME280;11491;41.942;24.220;2023-03-02T12:56:40;89960.28;;;5.53;84.44
22649;BME280;11491;41.942;24.220;2023-03-02T12:59:18;89960.91;;;5.50;84.54
22649;BME280;11491;41.942;24.220;2023-03-02T13:01:46;89962.75;;;5.40;84.42
22649;BME280;11491;41.942;24.220;2023-03-02T13:04:20;89961.66;;;5.33;84.84
22649;BME280;11491;41.942;24.220;2023-03-02T13:06:49;89960.22;;;5.09;85.44
22649;BME280;11491;41.942;24.220;2023-03-02T13:09:16;89965.19;;;5.11;86.10
22649;BME280;11491;41.942;24.220;2023-03-02T13:11:45;89961.44;;;4.94;86.37
22649;BME280;11491;41.942;24.220;2023-03-02T13:14:21;89960.47;;;4.90;87.02